createdAt,value
2023-05-19T00:02:27.631Z,57.46
2023-05-19T00:05:03.047Z,57.51
2023-05-19T00:07:39.184Z,57.71
2023-05-19T00:10:15.604Z,57.70
2023-05-19T00:12:51.881Z,57.86
2023-05-19T00:15:28.334Z,57.99
2023-05-19T00:18:02.074Z,58.52
2023-05-19T00:20:35.467Z,58.40
2023-05-19T00:23:08.769Z,58.45
2023-05-19T00:25:42.690Z,58.33
2023-05-19T00:28:16.133Z,58.47
2023-05-19T00:30:49.710Z,57.97
2023-05-19T00:33:23.140Z,58.41
2023-05-19T00:35:56.452Z,58.28
2023-05-19T00:38:29.732Z,58.55
2023-05-19T00:41:04.317Z,58.44
2023-05-19T00:43:37.676Z,58.87
2023-05-19T00:46:11.778Z,59.26
2023-05-19T00:48:45.644Z,59.23
2023-05-19T00:51:20.763Z,59.33
2023-05-19T00:53:54.205Z,59.88
2023-05-19T00:56:27.901Z,59.59
2023-05-19T00:59:01.819Z,60.52
2023-05-19T01:01:35.243Z,60.52
2023-05-19T01:04:10.528Z,60.88
2023-05-19T01:06:44.686Z,60.40
2023-05-19T01:09:18.409Z,60.75
2023-05-19T01:11:51.429Z,60.27
2023-05-19T01:14:25.855Z,60.61
2023-05-19T01:17:09.903Z,60.90
2023-05-19T01:20:06.577Z,61.07
2023-05-19T01:23:28.803Z,61.48
2023-05-19T01:26:27.957Z,61.01
2023-05-19T01:29:29.090Z,61.52
2023-05-19T01:32:05.857Z,61.71
2023-05-19T01:34:43.639Z,61.83
2023-05-19T01:37:18.736Z,61.62
2023-05-19T01:39:53.557Z,62.13
2023-05-19T01:42:28.297Z,62.36
2023-05-19T01:45:02.644Z,61.89
2023-05-19T01:47:38.197Z,62.31
2023-05-19T01:50:14.553Z,62.19
2023-05-19T01:52:48.067Z,62.40
2023-05-19T01:55:23.244Z,61.78
2023-05-19T01:58:14.578Z,62.73
2023-05-19T02:01:04.866Z,63.00
2023-05-19T02:04:04.980Z,62.86
2023-05-19T02:06:47.290Z,62.96
2023-05-19T02:09:24.651Z,63.02
2023-05-19T02:12:05.461Z,62.86
2023-05-19T02:14:46.394Z,62.76
2023-05-19T02:17:21.513Z,63.24
2023-05-19T02:19:54.565Z,63.29
2023-05-19T02:22:27.964Z,63.49
2023-05-19T02:25:01.417Z,63.46
2023-05-19T02:27:35.064Z,63.59
2023-05-19T02:30:10.254Z,63.73
2023-05-19T02:32:46.867Z,64.05
2023-05-19T02:35:21.027Z,64.29
2023-05-19T02:37:55.105Z,63.58
2023-05-19T02:40:28.586Z,63.94
2023-05-19T02:43:01.979Z,64.33
2023-05-19T02:45:35.246Z,64.59
2023-05-19T02:48:09.756Z,64.97
2023-05-19T02:50:43.007Z,64.46
2023-05-19T02:53:16.302Z,64.04
2023-05-19T02:55:49.693Z,65.09
2023-05-19T02:58:22.984Z,64.87
2023-05-19T03:00:56.275Z,65.27
2023-05-19T03:03:29.683Z,65.36
2023-05-19T03:06:03.074Z,65.95
2023-05-19T03:08:36.628Z,66.26
2023-05-19T03:11:10.325Z,66.14
2023-05-19T03:13:43.587Z,66.18
2023-05-19T03:16:16.888Z,66.61
2023-05-19T03:18:51.260Z,67.01
2023-05-19T03:21:24.625Z,67.70
2023-05-19T03:23:58.045Z,66.77
2023-05-19T03:26:31.512Z,67.64
2023-05-19T03:29:05.103Z,67.21
2023-05-19T03:31:38.406Z,67.46
2023-05-19T03:34:11.658Z,67.33
2023-05-19T03:36:45.059Z,67.19
2023-05-19T03:39:18.714Z,67.99
2023-05-19T03:41:52.019Z,68.15
2023-05-19T03:44:25.279Z,67.98
2023-05-19T03:46:58.615Z,67.93
2023-05-19T03:49:31.959Z,67.99
2023-05-19T03:52:05.291Z,68.18
2023-05-19T03:54:39.945Z,68.69
2023-05-19T03:57:14.993Z,69.06
2023-05-19T03:59:48.514Z,69.25
2023-05-19T04:02:21.940Z,69.32
2023-05-19T04:04:55.983Z,69.77
2023-05-19T04:07:29.374Z,69.74
2023-05-19T04:10:03.424Z,69.88
2023-05-19T04:12:37.132Z,69.79
2023-05-19T04:15:14.490Z,69.97
2023-05-19T04:17:48.545Z,70.32
2023-05-19T04:20:22.080Z,69.70
2023-05-19T04:22:55.096Z,69.78
2023-05-19T04:25:28.429Z,70.05
2023-05-19T04:28:03.002Z,69.82
2023-05-19T04:30:37.016Z,70.12
2023-05-19T04:33:10.816Z,70.12
2023-05-19T04:35:44.389Z,69.98
2023-05-19T04:38:18.881Z,69.98
2023-05-19T04:40:52.473Z,70.55
2023-05-19T04:43:27.265Z,71.57
2023-05-19T04:46:02.034Z,71.57
2023-05-19T04:48:35.399Z,71.09
2023-05-19T04:51:09.298Z,71.23
2023-05-19T04:53:42.290Z,71.04
2023-05-19T04:56:15.724Z,71.12
2023-05-19T04:58:49.402Z,71.95
2023-05-19T05:01:25.884Z,72.32
2023-05-19T05:04:02.238Z,71.79
2023-05-19T05:06:38.308Z,71.44
2023-05-19T05:09:11.509Z,71.50
2023-05-19T05:11:47.978Z,71.50
2023-05-19T05:14:23.438Z,71.84
2023-05-19T05:16:57.913Z,71.09
2023-05-19T05:19:33.549Z,71.75
2023-05-19T05:22:08.729Z,71.99
2023-05-19T05:24:42.399Z,72.00
2023-05-19T05:27:15.731Z,71.72
2023-05-19T05:29:49.805Z,71.81
2023-05-19T05:32:25.729Z,72.04
2023-05-19T05:34:59.460Z,71.80
2023-05-19T05:37:33.380Z,71.50
2023-05-19T05:40:08.011Z,71.81
2023-05-19T05:42:41.355Z,70.67
2023-05-19T05:45:16.760Z,71.18
2023-05-19T05:47:53.395Z,71.35
2023-05-19T05:50:29.280Z,71.20
2023-05-19T05:53:04.637Z,70.61
2023-05-19T05:55:39.956Z,70.63
2023-05-19T05:58:15.514Z,70.85
2023-05-19T06:00:49.263Z,69.88
2023-05-19T06:03:24.404Z,69.67
2023-05-19T06:05:58.146Z,69.77
2023-05-19T06:08:31.837Z,69.59
2023-05-19T06:11:08.382Z,69.76
2023-05-19T06:13:42.382Z,69.26
2023-05-19T06:16:15.721Z,68.40
2023-05-19T06:18:49.267Z,68.52
2023-05-19T06:21:22.769Z,68.11
2023-05-19T06:23:56.356Z,68.34
2023-05-19T06:26:29.455Z,67.35
2023-05-19T06:29:02.767Z,67.55
2023-05-19T06:31:36.064Z,67.18
2023-05-19T06:34:12.270Z,67.05
2023-05-19T06:36:45.964Z,67.46
2023-05-19T06:39:19.254Z,67.19
2023-05-19T06:41:52.544Z,66.99
2023-05-19T06:44:26.015Z,67.04
2023-05-19T06:46:59.301Z,67.58
2023-05-19T06:49:32.918Z,67.23
2023-05-19T06:52:06.653Z,67.41
2023-05-19T06:54:39.964Z,66.92
2023-05-19T06:57:13.077Z,66.49
2023-05-19T06:59:46.707Z,66.10
2023-05-19T07:02:19.999Z,66.44
2023-05-19T07:04:53.991Z,65.94
2023-05-19T07:07:27.733Z,67.00
2023-05-19T07:10:01.308Z,66.40
2023-05-19T07:12:34.475Z,64.68
2023-05-19T07:15:09.963Z,65.36
2023-05-19T07:17:43.433Z,65.54
2023-05-19T07:20:17.940Z,64.40
2023-05-19T07:22:51.228Z,64.07
2023-05-19T07:25:26.048Z,64.75
2023-05-19T07:27:59.059Z,64.51
2023-05-19T07:30:33.615Z,63.42
2023-05-19T07:33:08.248Z,63.67
2023-05-19T07:35:41.704Z,63.39
2023-05-19T07:38:15.012Z,64.68
2023-05-19T07:40:48.283Z,63.29
2023-05-19T07:43:21.883Z,62.41
2023-05-19T07:45:56.393Z,61.75
2023-05-19T07:48:30.248Z,63.09
2023-05-19T07:51:03.538Z,61.67
2023-05-19T07:53:36.883Z,61.55
2023-05-19T07:56:10.649Z,61.51
2023-05-19T07:58:43.660Z,61.23
2023-05-19T08:01:17.037Z,62.14
2023-05-19T08:03:50.475Z,59.71
2023-05-19T08:06:25.204Z,60.12
2023-05-19T08:08:58.851Z,59.94
2023-05-19T08:11:32.169Z,58.69
2023-05-19T08:14:05.232Z,60.51
2023-05-19T08:16:38.730Z,59.95
2023-05-19T08:19:12.484Z,57.56
2023-05-19T08:21:45.817Z,61.02
2023-05-19T08:24:19.182Z,60.82
2023-05-19T08:26:52.451Z,58.40
2023-05-19T08:29:25.582Z,57.40
2023-05-19T08:31:59.402Z,56.16
2023-05-19T08:34:33.231Z,55.32
2023-05-19T08:37:07.033Z,55.19
2023-05-19T08:39:40.739Z,55.62
2023-05-19T08:42:14.242Z,55.12
2023-05-19T08:44:47.495Z,55.84
2023-05-19T08:47:20.911Z,54.54
2023-05-19T08:50:04.959Z,54.63
2023-05-19T08:52:57.807Z,53.38
2023-05-19T08:55:42.907Z,54.37
2023-05-19T08:58:20.336Z,52.04
2023-05-19T09:00:54.665Z,53.59
2023-05-19T09:03:29.369Z,50.16
2023-05-19T09:06:05.095Z,52.31
2023-05-19T09:08:38.461Z,50.84
2023-05-19T09:11:13.130Z,51.22
2023-05-19T09:13:46.987Z,49.24
2023-05-19T09:16:20.902Z,52.45
2023-05-19T09:19:01.623Z,50.78
2023-05-19T09:21:37.440Z,50.17
2023-05-19T09:24:12.812Z,52.05
2023-05-19T09:26:46.705Z,50.93
2023-05-19T09:29:21.326Z,50.46
2023-05-19T09:32:00.619Z,50.88
2023-05-19T09:34:34.510Z,53.97
2023-05-19T09:37:08.091Z,53.27
2023-05-19T09:39:41.745Z,51.48
2023-05-19T09:42:17.097Z,49.17
2023-05-19T09:44:51.585Z,48.78
2023-05-19T09:47:25.476Z,46.38
2023-05-19T09:49:59.844Z,50.54
2023-05-19T09:52:35.781Z,45.39
2023-05-19T09:55:12.940Z,45.49
2023-05-19T09:57:48.000Z,46.03
2023-05-19T10:00:24.562Z,45.12
2023-05-19T10:02:59.544Z,44.58
2023-05-19T10:05:35.479Z,41.99
2023-05-19T10:08:12.958Z,42.29
2023-05-19T10:10:49.318Z,42.62
2023-05-19T10:13:25.051Z,43.68
2023-05-19T10:16:00.299Z,43.76
2023-05-19T10:18:39.111Z,41.90
2023-05-19T10:21:14.898Z,42.10
2023-05-19T10:23:48.186Z,40.23
2023-05-19T10:26:23.663Z,39.55
2023-05-19T10:28:59.549Z,40.44
2023-05-19T10:31:35.070Z,40.76
2023-05-19T10:34:34.469Z,38.45
2023-05-19T10:37:20.583Z,37.94
2023-05-19T10:39:56.585Z,37.51
2023-05-19T10:42:46.825Z,38.35
2023-05-19T10:45:28.113Z,35.17
2023-05-19T10:48:01.920Z,35.73
2023-05-19T10:50:44.335Z,37.63
2023-05-19T10:53:23.099Z,40.29
2023-05-19T10:56:03.467Z,34.59
2023-05-19T10:58:59.014Z,35.51
2023-05-19T11:01:39.448Z,35.05
2023-05-19T11:04:15.939Z,36.02
2023-05-19T11:06:57.811Z,36.81
2023-05-19T11:09:40.053Z,34.46
2023-05-19T11:12:12.888Z,36.55
2023-05-19T11:14:46.275Z,33.38
2023-05-19T11:17:23.717Z,33.67
2023-05-19T11:20:04.582Z,34.41
2023-05-19T11:22:41.072Z,34.74
2023-05-19T11:25:19.128Z,33.32
2023-05-19T11:27:53.569Z,33.86
2023-05-19T11:30:27.327Z,34.17
2023-05-19T11:33:01.051Z,32.39
2023-05-19T11:35:37.440Z,32.47
2023-05-19T11:38:11.992Z,33.87
2023-05-19T11:40:49.707Z,32.39
2023-05-19T11:43:26.511Z,32.73
2023-05-19T11:46:00.866Z,30.47
2023-05-19T11:48:35.931Z,31.77
2023-05-19T11:51:11.648Z,32.67
2023-05-19T11:53:46.100Z,33.46
2023-05-19T11:56:19.356Z,32.10
2023-05-19T11:58:55.983Z,34.29
2023-05-19T12:01:31.902Z,33.48
2023-05-19T12:04:09.053Z,32.24
2023-05-19T12:06:42.397Z,30.60
2023-05-19T12:09:16.264Z,30.69
2023-05-19T12:11:50.729Z,31.85
2023-05-19T12:14:24.492Z,30.05
2023-05-19T12:16:58.197Z,31.28
2023-05-19T12:19:31.786Z,28.64
2023-05-19T12:22:06.199Z,29.01
2023-05-19T12:24:40.109Z,32.69
2023-05-19T12:27:19.386Z,29.54
2023-05-19T12:29:58.165Z,27.58
2023-05-19T12:32:34.461Z,28.12
2023-05-19T12:35:10.056Z,28.33
2023-05-19T12:37:49.095Z,29.46
2023-05-19T12:40:22.567Z,29.91
2023-05-19T12:42:59.763Z,31.08
2023-05-19T12:45:37.479Z,30.08
2023-05-19T12:48:17.019Z,29.41
2023-05-19T12:50:52.808Z,31.31
2023-05-19T12:53:29.581Z,29.37
2023-05-19T12:56:10.993Z,29.40
2023-05-19T12:58:45.891Z,28.89
2023-05-19T13:01:24.114Z,29.25
2023-05-19T13:03:58.029Z,28.42
2023-05-19T13:06:32.769Z,29.57
2023-05-19T13:09:07.182Z,29.03
2023-05-19T13:11:40.587Z,28.32
2023-05-19T13:14:17.132Z,30.02
2023-05-19T13:16:51.259Z,28.71
2023-05-19T13:19:26.205Z,28.80
2023-05-19T13:21:59.839Z,28.39
2023-05-19T13:24:33.410Z,28.45
2023-05-19T13:27:06.678Z,26.95
2023-05-19T13:29:41.443Z,27.11
2023-05-19T13:32:14.854Z,28.52
2023-05-19T13:34:48.940Z,29.36
2023-05-19T13:37:22.776Z,27.63
2023-05-19T13:39:57.652Z,27.43
2023-05-19T13:42:30.945Z,27.44
2023-05-19T13:45:04.437Z,26.58
2023-05-19T13:47:38.218Z,26.55
2023-05-19T13:50:13.759Z,28.79
2023-05-19T13:52:47.452Z,28.83
2023-05-19T13:55:21.391Z,26.88
2023-05-19T13:57:54.436Z,28.57
2023-05-19T14:00:28.433Z,27.62
2023-05-19T14:03:01.974Z,28.26
2023-05-19T14:05:35.811Z,27.58
2023-05-19T14:08:11.323Z,27.33
2023-05-19T14:10:44.683Z,28.26
2023-05-19T14:13:32.639Z,27.74
2023-05-19T14:16:09.772Z,28.17
2023-05-19T14:18:43.386Z,27.56
2023-05-19T14:21:16.746Z,27.62
2023-05-19T14:23:50.138Z,26.92
2023-05-19T14:26:24.829Z,25.34
2023-05-19T14:28:58.380Z,25.95
2023-05-19T14:31:33.663Z,26.01
2023-05-19T14:34:06.965Z,25.95
2023-05-19T14:36:40.337Z,26.30
2023-05-19T14:39:13.754Z,27.87
2023-05-19T14:41:47.161Z,26.60
2023-05-19T14:44:20.214Z,28.42
2023-05-19T14:46:53.506Z,28.71
2023-05-19T14:49:27.120Z,27.71
2023-05-19T14:52:00.458Z,27.33
2023-05-19T14:54:33.822Z,26.90
2023-05-19T14:57:08.074Z,27.64
2023-05-19T14:59:43.325Z,27.16
2023-05-19T15:02:16.618Z,29.23
2023-05-19T15:04:49.965Z,28.85
2023-05-19T15:07:24.577Z,27.17
2023-05-19T15:09:58.318Z,27.56
2023-05-19T15:12:31.711Z,27.87
2023-05-19T15:15:05.097Z,27.98
2023-05-19T15:17:38.424Z,28.76
2023-05-19T15:20:15.149Z,28.02
2023-05-19T15:22:48.545Z,28.02
2023-05-19T15:25:21.866Z,30.05
2023-05-19T15:27:55.379Z,29.94
2023-05-19T15:30:29.174Z,27.86
2023-05-19T15:33:02.506Z,29.04
2023-05-19T15:35:35.851Z,29.22
2023-05-19T15:38:09.166Z,28.91
2023-05-19T15:40:44.487Z,28.34
2023-05-19T15:43:17.901Z,29.22
2023-05-19T15:45:54.901Z,28.59
2023-05-19T15:48:29.006Z,28.02
2023-05-19T15:51:02.767Z,29.22
2023-05-19T15:53:36.356Z,28.79
2023-05-19T15:56:10.728Z,28.58
2023-05-19T15:58:44.235Z,29.48
2023-05-19T16:01:17.669Z,30.47
2023-05-19T16:03:51.599Z,29.40
2023-05-19T16:06:27.566Z,29.98
2023-05-19T16:09:01.231Z,29.99
2023-05-19T16:11:34.958Z,30.96
2023-05-19T16:14:08.176Z,29.83
2023-05-19T16:16:41.301Z,30.19
2023-05-19T16:19:14.941Z,29.30
2023-05-19T16:21:48.604Z,30.21
2023-05-19T16:24:22.122Z,31.32
2023-05-19T16:26:55.454Z,30.13
2023-05-19T16:29:28.793Z,30.20
2023-05-19T16:32:01.860Z,29.80
2023-05-19T16:34:35.583Z,29.72
2023-05-19T16:37:10.018Z,30.21
2023-05-19T16:39:43.734Z,30.77
2023-05-19T16:42:17.064Z,30.38
2023-05-19T16:44:50.351Z,30.91
2023-05-19T16:47:23.376Z,30.79
2023-05-19T16:49:56.751Z,30.69
2023-05-19T16:52:30.145Z,31.07
2023-05-19T16:55:03.535Z,30.94
2023-05-19T16:57:36.874Z,32.02
2023-05-19T17:00:14.276Z,31.04
2023-05-19T17:02:47.834Z,31.96
2023-05-19T17:05:21.250Z,31.63
2023-05-19T17:07:54.657Z,30.03
2023-05-19T17:10:28.104Z,31.77
2023-05-19T17:13:01.377Z,31.09
2023-05-19T17:15:34.935Z,30.66
2023-05-19T17:18:08.007Z,30.27
2023-05-19T17:20:41.646Z,31.07
2023-05-19T17:23:15.125Z,32.48
2023-05-19T17:25:48.496Z,31.18
2023-05-19T17:28:22.800Z,31.03
2023-05-19T17:30:56.106Z,31.83
2023-05-19T17:33:29.379Z,31.44
2023-05-19T17:36:05.326Z,31.61
2023-05-19T17:38:40.409Z,32.47
2023-05-19T17:41:14.280Z,32.86
2023-05-19T17:43:48.430Z,33.64
2023-05-19T17:46:21.747Z,32.84
2023-05-19T17:48:55.554Z,32.95
2023-05-19T17:51:32.080Z,32.83
2023-05-19T17:54:08.558Z,33.26
2023-05-19T17:56:48.234Z,33.70
2023-05-19T17:59:22.829Z,34.07
2023-05-19T18:01:58.236Z,33.61
2023-05-19T18:04:33.543Z,33.13
2023-05-19T18:07:09.985Z,33.30
2023-05-19T18:09:51.930Z,34.16
2023-05-19T18:12:25.356Z,34.69
2023-05-19T18:14:58.675Z,34.16
2023-05-19T18:17:31.971Z,34.27
2023-05-19T18:20:05.295Z,34.53
2023-05-19T18:22:38.670Z,35.18
2023-05-19T18:25:14.359Z,34.54
2023-05-19T18:27:48.016Z,34.92
2023-05-19T18:30:21.979Z,34.71
2023-05-19T18:32:55.402Z,36.02
2023-05-19T18:35:28.434Z,35.53
2023-05-19T18:38:02.403Z,36.12
2023-05-19T18:40:35.955Z,36.46
2023-05-19T18:43:09.481Z,36.79
2023-05-19T18:45:43.241Z,36.95
2023-05-19T18:48:16.537Z,37.04
2023-05-19T18:50:49.817Z,36.63
2023-05-19T18:53:23.662Z,36.69
2023-05-19T18:55:57.019Z,36.62
2023-05-19T18:58:30.415Z,37.62
2023-05-19T19:01:03.724Z,38.54
2023-05-19T19:03:37.040Z,37.63
2023-05-19T19:06:10.986Z,37.99
2023-05-19T19:08:44.651Z,37.70
2023-05-19T19:11:18.120Z,37.83
2023-05-19T19:13:55.364Z,38.15
2023-05-19T19:16:29.058Z,38.29
2023-05-19T19:19:02.407Z,39.08
2023-05-19T19:21:35.638Z,39.05
2023-05-19T19:24:10.118Z,38.78
2023-05-19T19:26:43.468Z,38.81
2023-05-19T19:29:18.144Z,39.77
2023-05-19T19:31:51.775Z,39.01
2023-05-19T19:34:25.079Z,38.98
2023-05-19T19:36:58.170Z,39.81
2023-05-19T19:39:31.464Z,40.25
2023-05-19T19:42:04.956Z,39.04
2023-05-19T19:44:38.360Z,39.79
2023-05-19T19:47:11.979Z,40.11
2023-05-19T19:49:46.082Z,40.39
2023-05-19T19:52:20.302Z,40.60
2023-05-19T19:54:53.642Z,40.61
2023-05-19T19:57:29.123Z,39.98
2023-05-19T20:00:08.289Z,40.34
2023-05-19T20:02:55.833Z,40.62
2023-05-19T20:05:38.013Z,40.50
2023-05-19T20:08:11.497Z,41.26
2023-05-19T20:10:46.763Z,40.72
2023-05-19T20:13:20.702Z,41.43
2023-05-19T20:15:54.061Z,40.85
2023-05-19T20:18:29.632Z,42.64
2023-05-19T20:21:02.994Z,42.06
2023-05-19T20:23:38.782Z,42.54
2023-05-19T20:26:13.392Z,41.70
2023-05-19T20:28:47.164Z,42.16
2023-05-19T20:31:21.400Z,42.51
2023-05-19T20:33:54.751Z,43.13
2023-05-19T20:36:28.135Z,42.23
2023-05-19T20:39:01.296Z,43.01
2023-05-19T20:41:34.541Z,43.24
2023-05-19T20:44:08.476Z,43.37
2023-05-19T20:46:42.130Z,43.06
2023-05-19T20:49:15.552Z,43.04
2023-05-19T20:51:48.974Z,44.27
2023-05-19T20:54:22.180Z,44.49
2023-05-19T20:56:55.972Z,44.12
2023-05-19T20:59:29.293Z,44.33
2023-05-19T21:02:02.707Z,43.95
2023-05-19T21:04:37.241Z,43.52
2023-05-19T21:07:11.130Z,44.07
2023-05-19T21:09:46.515Z,45.03
2023-05-19T21:12:23.748Z,44.66
2023-05-19T21:14:57.116Z,45.60
2023-05-19T21:17:30.415Z,45.43
2023-05-19T21:20:04.140Z,45.24
2023-05-19T21:22:37.526Z,45.62
2023-05-19T21:25:12.086Z,44.88
2023-05-19T21:27:46.608Z,45.88
2023-05-19T21:30:20.286Z,45.73
2023-05-19T21:32:53.990Z,46.22
2023-05-19T21:35:27.594Z,46.32
2023-05-19T21:38:11.941Z,45.88
2023-05-19T21:40:51.666Z,45.99
2023-05-19T21:43:25.045Z,46.78
2023-05-19T21:45:58.516Z,46.37
2023-05-19T21:48:32.991Z,46.72
2023-05-19T21:51:07.305Z,46.36
2023-05-19T21:53:40.554Z,47.29
2023-05-19T21:56:14.426Z,47.14
2023-05-19T21:58:47.857Z,47.54
2023-05-19T22:01:22.215Z,47.97
2023-05-19T22:03:55.937Z,47.90
2023-05-19T22:06:29.753Z,47.58
2023-05-19T22:09:03.551Z,47.64
2023-05-19T22:11:37.350Z,48.48
2023-05-19T22:14:10.696Z,48.44
2023-05-19T22:16:44.132Z,48.91
2023-05-19T22:19:18.278Z,48.51
2023-05-19T22:21:58.437Z,48.22
2023-05-19T22:24:35.896Z,48.98
2023-05-19T22:27:10.938Z,49.03
2023-05-19T22:29:44.539Z,49.11
2023-05-19T22:32:19.394Z,49.25
2023-05-19T22:34:52.767Z,48.91
2023-05-19T22:37:28.878Z,49.32
2023-05-19T22:40:02.387Z,49.13
2023-05-19T22:42:35.371Z,49.71
2023-05-19T22:45:10.696Z,49.95
2023-05-19T22:47:44.092Z,49.86
2023-05-19T22:50:17.761Z,49.72
2023-05-19T22:52:51.047Z,49.62
2023-05-19T22:55:24.284Z,49.68
2023-05-19T22:57:57.511Z,49.73
2023-05-19T23:00:30.889Z,49.94
2023-05-19T23:03:04.658Z,50.29
2023-05-19T23:05:37.998Z,50.90
2023-05-19T23:08:12.230Z,50.64
2023-05-19T23:10:45.530Z,51.32
2023-05-19T23:13:20.065Z,51.27
2023-05-19T23:15:53.935Z,50.88
2023-05-19T23:18:27.350Z,51.29
2023-05-19T23:21:00.664Z,51.65
2023-05-19T23:23:35.855Z,51.62
2023-05-19T23:26:09.145Z,51.88
2023-05-19T23:28:42.665Z,52.22
2023-05-19T23:31:15.976Z,51.77
2023-05-19T23:33:49.429Z,52.59
2023-05-19T23:36:23.429Z,53.03
2023-05-19T23:38:56.696Z,52.61
2023-05-19T23:41:29.941Z,52.61
2023-05-19T23:44:03.159Z,53.08
2023-05-19T23:46:36.523Z,53.15
2023-05-19T23:49:10.198Z,52.90
2023-05-19T23:51:43.499Z,53.57
2023-05-19T23:54:16.741Z,53.32
2023-05-19T23:56:50.014Z,53.35
2023-05-19T23:59:23.215Z,53.45
